Sunday, February 7, 2016, 7:41 AM EST

KOKV, Winchester Regional

Location: Winchester, VA, United States Lat: 39.15
Local Time: 7:41 AM EST (12:41 GMT) Lon: -78.15
Time Zone: US/Eastern Elev: 728 ft

Show me the last for .
Show Decoded

2016-02-07 07:15 METAR KOKV 071215Z AUTO 00000KT 10SM CLR M04/M07 A3017 RMK AO2 =
2016-02-07 06:55 METAR KOKV 071155Z AUTO 00000KT 10SM CLR M03/M06 A3016 RMK AO2 =
2016-02-07 06:35 METAR KOKV 071135Z AUTO 00000KT 10SM CLR M03/M06 A3016 RMK AO2 =
2016-02-07 06:15 METAR KOKV 071115Z AUTO 17003KT 10SM CLR M03/M07 A3016 RMK AO2 =
2016-02-07 05:55 METAR KOKV 071055Z AUTO 31003KT 10SM CLR M02/M06 A3016 RMK AO2 =
2016-02-07 05:35 METAR KOKV 071035Z AUTO 00000KT 10SM CLR M02/M06 A3017 RMK AO2 =
2016-02-07 05:15 METAR KOKV 071015Z AUTO 30004KT 10SM CLR M03/M07 A3017 RMK AO2 =
2016-02-07 04:55 METAR KOKV 070955Z AUTO 29005KT 10SM CLR M02/M06 A3018 RMK AO2 =
2016-02-07 04:35 METAR KOKV 070935Z AUTO 30004KT 10SM CLR M02/M06 A3018 RMK AO2 =
2016-02-07 04:15 METAR KOKV 070915Z AUTO 18007KT 10SM CLR M03/M06 A3019 RMK AO2 =
2016-02-07 03:55 METAR KOKV 070855Z AUTO 00000KT 10SM CLR M02/M06 A3017 RMK AO2 =
2016-02-07 03:35 METAR KOKV 070835Z AUTO 00000KT 10SM CLR M02/M06 A3017 RMK AO2 =
2016-02-07 03:15 METAR KOKV 070815Z AUTO 00000KT 10SM CLR M01/M06 A3018 RMK AO2 =
2016-02-07 02:55 METAR KOKV 070755Z AUTO 00000KT 10SM CLR 00/M06 A3019 RMK AO2 =
2016-02-07 02:35 METAR KOKV 070735Z AUTO 00000KT 10SM CLR M02/M06 A3020 RMK AO2 =
2016-02-07 02:15 METAR KOKV 070715Z AUTO 00000KT 10SM CLR M01/M06 A3020 RMK AO2 =
2016-02-07 01:55 METAR KOKV 070655Z AUTO 00000KT 10SM CLR 00/M06 A3021 RMK AO2 =
2016-02-07 01:35 METAR KOKV 070635Z AUTO 27003KT 10SM CLR 00/M06 A3020 RMK AO2 =
2016-02-07 01:15 METAR KOKV 070615Z AUTO 24003KT 10SM CLR 00/M06 A3021 RMK AO2 =
2016-02-07 00:55 METAR KOKV 070555Z AUTO 23003KT 10SM CLR 00/M06 A3022 RMK AO2 =
2016-02-07 00:35 METAR KOKV 070535Z AUTO 00000KT 10SM CLR M01/M06 A3021 RMK AO2 =
2016-02-07 00:15 METAR KOKV 070515Z AUTO 00000KT 10SM CLR M01/M06 A3021 RMK AO2 =
2016-02-06 23:55 METAR KOKV 070455Z AUTO 00000KT 10SM CLR M01/M06 A3022 RMK AO2 =
2016-02-06 23:35 METAR KOKV 070435Z AUTO 00000KT 10SM CLR 00/M06 A3022 RMK AO2 =
2016-02-06 23:15 METAR KOKV 070415Z AUTO 21003KT 10SM CLR 00/M06 A3023 RMK AO2 =
2016-02-06 22:55 METAR KOKV 070355Z AUTO 20004KT 10SM CLR 00/M06 A3024 RMK AO2 =
2016-02-06 22:35 METAR KOKV 070335Z AUTO 18004KT 10SM CLR 01/M06 A3025 RMK AO2 =
2016-02-06 22:15 METAR KOKV 070315Z AUTO 19004KT 10SM CLR 01/M06 A3025 RMK AO2 =
2016-02-06 21:55 METAR KOKV 070255Z AUTO 20004KT 10SM CLR 01/M06 A3026 RMK AO2 =
2016-02-06 21:35 METAR KOKV 070235Z AUTO 19003KT 10SM CLR 01/M06 A3026 RMK AO2 =
2016-02-06 21:15 METAR KOKV 070215Z AUTO 20003KT 10SM CLR 02/M06 A3026 RMK AO2 =
2016-02-06 20:55 METAR KOKV 070155Z AUTO 19003KT 10SM CLR 02/M06 A3026 RMK AO2 =
2016-02-06 20:35 METAR KOKV 070135Z AUTO 18004KT 10SM CLR 02/M06 A3027 RMK AO2 =
2016-02-06 20:15 METAR KOKV 070115Z AUTO 17005KT 10SM CLR 02/M06 A3027 RMK AO2 =
2016-02-06 19:55 METAR KOKV 070055Z AUTO 17006KT 10SM CLR 02/M06 A3026 RMK AO2 =
2016-02-06 19:35 METAR KOKV 070035Z AUTO 17004KT 10SM CLR 01/M06 A3026 RMK AO2 =
2016-02-06 19:15 METAR KOKV 070015Z AUTO 16003KT 10SM CLR 01/M06 A3026 RMK AO2 =
2016-02-06 18:55 METAR KOKV 062355Z AUTO 00000KT 10SM CLR 01/M06 A3025 RMK AO2 =
2016-02-06 18:35 METAR KOKV 062335Z AUTO 00000KT 10SM CLR 02/M06 A3025 RMK AO2 =
2016-02-06 18:15 METAR KOKV 062315Z AUTO 17003KT 10SM CLR 03/M06 A3025 RMK AO2 =
2016-02-06 17:55 METAR KOKV 062255Z AUTO 17004KT 10SM CLR 03/M06 A3025 RMK AO2 =
2016-02-06 17:35 METAR KOKV 062235Z AUTO 17004KT 10SM CLR 05/M06 A3025 RMK AO2 =
2016-02-06 17:15 METAR KOKV 062215Z AUTO 16005KT 10SM CLR 05/M06 A3025 RMK AO2 =
2016-02-06 16:55 METAR KOKV 062155Z AUTO 16003KT 10SM CLR 05/M06 A3025 RMK AO2 =
2016-02-06 16:35 METAR KOKV 062135Z AUTO 18004KT 10SM CLR 06/M07 A3025 RMK AO2 =
2016-02-06 16:15 METAR KOKV 062115Z AUTO 15007KT 10SM CLR 06/M07 A3025 RMK AO2 =
2016-02-06 15:55 METAR KOKV 062055Z AUTO 15010KT 10SM CLR 07/M07 A3024 RMK AO2 =
2016-02-06 15:35 METAR KOKV 062035Z AUTO 17007KT 10SM CLR 07/M07 A3025 RMK AO2 =
2016-02-06 15:15 METAR KOKV 062015Z AUTO 16007KT 10SM CLR 06/M07 A3025 RMK AO2 =
2016-02-06 14:55 METAR KOKV 061955Z AUTO 16007KT 10SM CLR 06/M07 A3025 RMK AO2 =
2016-02-06 14:35 METAR KOKV 061935Z AUTO 16010KT 10SM CLR 07/M07 A3026 RMK AO2 =
2016-02-06 14:15 METAR KOKV 061915Z AUTO 18008KT 10SM CLR 06/M07 A3027 RMK AO2 =
2016-02-06 13:55 METAR KOKV 061855Z AUTO 16007KT 10SM CLR 06/M06 A3028 RMK AO2 =
2016-02-06 13:35 METAR KOKV 061835Z AUTO 16007G14KT 10SM CLR 06/M06 A3029 RMK AO2 =
2016-02-06 13:15 METAR KOKV 061815Z AUTO 16009KT 10SM CLR 06/M07 A3030 RMK AO2 =
2016-02-06 12:55 METAR KOKV 061755Z AUTO 16008KT 10SM CLR 06/M07 A3031 RMK AO2 =
2016-02-06 12:35 METAR KOKV 061735Z AUTO 23005KT 10SM CLR 06/M07 A3032 RMK AO2 =
2016-02-06 12:15 METAR KOKV 061715Z AUTO 20007KT 10SM CLR 05/M07 A3034 RMK AO2 =
2016-02-06 11:55 METAR KOKV 061655Z AUTO 20006KT 10SM CLR 06/M06 A3035 RMK AO2 =
2016-02-06 11:35 METAR KOKV 061635Z AUTO 18007KT 10SM CLR 05/M06 A3037 RMK AO2 =
2016-02-06 11:15 METAR KOKV 061615Z AUTO 20009KT 10SM CLR 05/M06 A3038 RMK AO2 =
2016-02-06 10:55 METAR KOKV 061555Z AUTO 19009KT 10SM CLR 04/M05 A3039 RMK AO2 =
2016-02-06 10:35 METAR KOKV 061535Z AUTO 22006KT 10SM CLR 03/M05 A3040 RMK AO2 =
2016-02-06 10:15 METAR KOKV 061515Z AUTO 23005KT 10SM CLR 01/M06 A3041 RMK AO2 =
2016-02-06 09:55 METAR KOKV 061455Z AUTO 22005KT 10SM CLR 01/M06 A3041 RMK AO2 =
2016-02-06 09:35 METAR KOKV 061435Z AUTO 22004KT 10SM CLR 00/M05 A3041 RMK AO2 =
2016-02-06 09:15 METAR KOKV 061415Z AUTO 20004KT 10SM CLR 00/M05 A3041 RMK AO2 =
2016-02-06 08:55 METAR KOKV 061355Z AUTO 19004KT 10SM CLR M01/M05 A3041 RMK AO2 =
2016-02-06 08:35 METAR KOKV 061335Z AUTO 21004KT 10SM CLR M01/M06 A3041 RMK AO2 =
2016-02-06 08:15 METAR KOKV 061315Z AUTO 19004KT 10SM CLR M02/M06 A3041 RMK AO2 =
2016-02-06 07:55 METAR KOKV 061255Z AUTO 00000KT 10SM CLR M02/M06 A3042 RMK AO2 =

Support USWX by starting your Amazon purchase here.